Accueil
METAR-TAF:

METAR-TAF

Aéroports :

Montpellier, France

Aéroport de Montpellier-Méditerranée

latitude: 43-35N, longitude: 003-58E, altitude: 5 m

Observation

Le bulletin a été fait il y a 28 minutes, à 16:00 UTC
Vent 6 kt de nord/nord-est, variant entre nord/nord-ouest et est
Température 10°C
Humidité 37%
Pression 1006 hPa
Visibilité 10 km ou plus
pas de nuages en-dessous de 1500 mètres et pas de cumulonimbus.

METAR: LFMT 221600Z AUTO 03006KT 340V090 CAVOK 10/M04 Q1006 NOSIG

Heure: 17:28 (16:28 UTC)

Prévision

Le bulletin a été fait il y a 2 heures et 28 minutes, à 14:00 UTC
Prévision valable du 22 à 15 UTC au 23 à 15 UTC
Vent 10 kt de nord/nord-est
Visibilité 10 km ou plus
pas de nuages en-dessous de 1500 mètres et pas de cumulonimbus.

TAF: LFMT 221400Z 2215/2315 02010KT CAVOK

Observations et prévisions météorologiques de plus de 4000 aéroports (messages METAR et TAF).

Les stations disponibles sont représentées par des disques jaunes et rouges sur la carte.

Passer la souris dessus pour voir le nom de la station.

Cliquer dessus pour voir les observations et prévisions météorologiques.

Pour changer de carte: cliquez sur les boutons verts avec une croix noire pour zoomer, sur le bouton vert avec un tiret pour effectuer un zoom arrière, ou sur les flèches vertes pour les cartes adjacentes.


METAR-TAF: